sensor_id;sensor_type;location;lat;lon;timestamp;P1;durP1;ratioP1;P2;durP2;ratioP2
58091;SDS011;43896;48.178;11.578;2022-07-29T00:02:23;5.10;;;3.00;;
58091;SDS011;43896;48.178;11.578;2022-07-29T00:05:03;2.50;;;1.15;;
58091;SDS011;43896;48.178;11.578;2022-07-29T00:07:31;2.60;;;1.20;;
58091;SDS011;43896;48.178;11.578;2022-07-29T00:09:59;2.50;;;1.00;;
58091;SDS011;43896;48.178;11.578;2022-07-29T00:12:32;2.55;;;1.02;;
58091;SDS011;43896;48.178;11.578;2022-07-29T00:15:00;3.00;;;1.33;;
58091;SDS011;43896;48.178;11.578;2022-07-29T00:17:26;3.85;;;1.35;;
58091;SDS011;43896;48.178;11.578;2022-07-29T00:19:55;2.57;;;1.20;;
58091;SDS011;43896;48.178;11.578;2022-07-29T00:22:23;5.20;;;1.40;;
58091;SDS011;43896;48.178;11.578;2022-07-29T00:24:51;1.83;;;1.20;;
58091;SDS011;43896;48.178;11.578;2022-07-29T00:27:17;2.88;;;1.20;;
58091;SDS011;43896;48.178;11.578;2022-07-29T00:29:45;2.73;;;1.30;;
58091;SDS011;43896;48.178;11.578;2022-07-29T00:32:18;3.30;;;1.40;;
58091;SDS011;43896;48.178;11.578;2022-07-29T00:34:46;3.88;;;1.50;;
58091;SDS011;43896;48.178;11.578;2022-07-29T00:37:33;4.00;;;1.50;;
58091;SDS011;43896;48.178;11.578;2022-07-29T00:40:07;2.83;;;1.50;;
58091;SDS011;43896;48.178;11.578;2022-07-29T00:42:53;3.03;;;1.50;;
58091;SDS011;43896;48.178;11.578;2022-07-29T00:45:30;2.83;;;1.40;;
58091;SDS011;43896;48.178;11.578;2022-07-29T00:47:55;3.63;;;1.70;;
58091;SDS011;43896;48.178;11.578;2022-07-29T00:50:31;2.70;;;1.50;;
58091;SDS011;43896;48.178;11.578;2022-07-29T00:53:00;3.38;;;1.65;;
58091;SDS011;43896;48.178;11.578;2022-07-29T00:55:34;3.97;;;1.50;;
58091;SDS011;43896;48.178;11.578;2022-07-29T00:58:05;3.70;;;1.50;;
58091;SDS011;43896;48.178;11.578;2022-07-29T01:00:38;4.22;;;1.60;;
58091;SDS011;43896;48.178;11.578;2022-07-29T01:03:07;3.70;;;1.75;;
58091;SDS011;43896;48.178;11.578;2022-07-29T01:05:46;3.05;;;1.50;;
58091;SDS011;43896;48.178;11.578;2022-07-29T01:08:21;3.33;;;1.48;;
58091;SDS011;43896;48.178;11.578;2022-07-29T01:10:51;3.38;;;1.40;;
58091;SDS011;43896;48.178;11.578;2022-07-29T01:13:24;3.10;;;1.30;;
58091;SDS011;43896;48.178;11.578;2022-07-29T01:16:07;2.58;;;1.20;;
58091;SDS011;43896;48.178;11.578;2022-07-29T01:18:44;3.38;;;1.50;;
58091;SDS011;43896;48.178;11.578;2022-07-29T01:29:54;2.25;;;1.25;;
58091;SDS011;43896;48.178;11.578;2022-07-29T01:32:28;2.72;;;1.30;;
58091;SDS011;43896;48.178;11.578;2022-07-29T01:40:40;2.78;;;1.40;;
58091;SDS011;43896;48.178;11.578;2022-07-29T01:43:16;2.97;;;1.50;;
58091;SDS011;43896;48.178;11.578;2022-07-29T01:46:04;3.22;;;1.63;;
58091;SDS011;43896;48.178;11.578;2022-07-29T01:48:59;3.33;;;1.70;;
58091;SDS011;43896;48.178;11.578;2022-07-29T01:54:38;2.60;;;1.60;;
58091;SDS011;43896;48.178;11.578;2022-07-29T01:57:33;5.53;;;1.80;;
58091;SDS011;43896;48.178;11.578;2022-07-29T02:00:05;2.97;;;1.50;;
58091;SDS011;43896;48.178;11.578;2022-07-29T02:02:47;3.40;;;1.58;;
58091;SDS011;43896;48.178;11.578;2022-07-29T02:05:27;3.95;;;1.60;;
58091;SDS011;43896;48.178;11.578;2022-07-29T02:08:06;4.28;;;1.60;;
58091;SDS011;43896;48.178;11.578;2022-07-29T02:10:58;3.13;;;1.40;;
58091;SDS011;43896;48.178;11.578;2022-07-29T02:13:36;3.42;;;1.63;;
58091;SDS011;43896;48.178;11.578;2022-07-29T02:16:24;2.72;;;1.50;;
58091;SDS011;43896;48.178;11.578;2022-07-29T02:21:30;2.78;;;1.63;;
58091;SDS011;43896;48.178;11.578;2022-07-29T02:24:10;2.78;;;1.70;;
58091;SDS011;43896;48.178;11.578;2022-07-29T02:26:51;3.30;;;1.60;;
58091;SDS011;43896;48.178;11.578;2022-07-29T02:29:23;3.13;;;1.40;;
58091;SDS011;43896;48.178;11.578;2022-07-29T02:32:00;2.63;;;1.52;;
58091;SDS011;43896;48.178;11.578;2022-07-29T02:34:32;3.60;;;1.70;;
58091;SDS011;43896;48.178;11.578;2022-07-29T02:37:05;3.65;;;1.60;;
58091;SDS011;43896;48.178;11.578;2022-07-29T02:40:06;4.13;;;1.83;;
58091;SDS011;43896;48.178;11.578;2022-07-29T02:42:53;3.60;;;1.75;;
58091;SDS011;43896;48.178;11.578;2022-07-29T02:45:42;4.68;;;1.80;;
58091;SDS011;43896;48.178;11.578;2022-07-29T02:48:32;3.33;;;1.77;;
58091;SDS011;43896;48.178;11.578;2022-07-29T02:51:07;3.13;;;1.60;;
58091;SDS011;43896;48.178;11.578;2022-07-29T02:53:59;3.45;;;1.77;;
58091;SDS011;43896;48.178;11.578;2022-07-29T02:56:48;3.47;;;1.50;;
58091;SDS011;43896;48.178;11.578;2022-07-29T02:59:21;4.63;;;1.70;;
58091;SDS011;43896;48.178;11.578;2022-07-29T03:02:06;4.03;;;1.70;;
58091;SDS011;43896;48.178;11.578;2022-07-29T03:04:58;4.10;;;2.03;;
58091;SDS011;43896;48.178;11.578;2022-07-29T03:07:40;3.85;;;1.98;;
58091;SDS011;43896;48.178;11.578;2022-07-29T03:10:10;6.63;;;1.80;;
58091;SDS011;43896;48.178;11.578;2022-07-29T03:12:37;3.83;;;1.90;;
58091;SDS011;43896;48.178;11.578;2022-07-29T03:15:10;4.88;;;1.80;;
58091;SDS011;43896;48.178;11.578;2022-07-29T03:17:43;3.15;;;1.85;;
58091;SDS011;43896;48.178;11.578;2022-07-29T03:20:12;3.85;;;1.98;;
58091;SDS011;43896;48.178;11.578;2022-07-29T03:22:41;5.07;;;1.80;;
58091;SDS011;43896;48.178;11.578;2022-07-29T03:25:11;4.32;;;1.90;;
58091;SDS011;43896;48.178;11.578;2022-07-29T03:27:43;4.00;;;2.03;;
58091;SDS011;43896;48.178;11.578;2022-07-29T03:30:12;3.08;;;1.70;;
58091;SDS011;43896;48.178;11.578;2022-07-29T03:32:41;6.13;;;1.92;;
58091;SDS011;43896;48.178;11.578;2022-07-29T03:35:11;3.83;;;1.70;;
58091;SDS011;43896;48.178;11.578;2022-07-29T03:37:44;3.55;;;1.77;;
58091;SDS011;43896;48.178;11.578;2022-07-29T03:40:11;5.35;;;1.88;;
58091;SDS011;43896;48.178;11.578;2022-07-29T03:42:42;3.70;;;1.80;;
58091;SDS011;43896;48.178;11.578;2022-07-29T03:45:10;4.85;;;1.80;;
58091;SDS011;43896;48.178;11.578;2022-07-29T03:47:40;3.58;;;1.88;;
58091;SDS011;43896;48.178;11.578;2022-07-29T03:50:10;3.63;;;1.90;;
58091;SDS011;43896;48.178;11.578;2022-07-29T03:52:38;4.43;;;1.80;;
58091;SDS011;43896;48.178;11.578;2022-07-29T03:55:04;4.93;;;1.90;;
58091;SDS011;43896;48.178;11.578;2022-07-29T03:57:30;4.05;;;1.90;;
58091;SDS011;43896;48.178;11.578;2022-07-29T03:59:57;3.72;;;1.73;;
58091;SDS011;43896;48.178;11.578;2022-07-29T04:02:23;5.47;;;1.90;;
58091;SDS011;43896;48.178;11.578;2022-07-29T04:04:50;3.47;;;1.83;;
58091;SDS011;43896;48.178;11.578;2022-07-29T04:07:16;4.93;;;1.92;;
58091;SDS011;43896;48.178;11.578;2022-07-29T04:09:42;3.92;;;1.80;;
58091;SDS011;43896;48.178;11.578;2022-07-29T04:12:09;5.35;;;1.90;;
58091;SDS011;43896;48.178;11.578;2022-07-29T04:14:35;3.47;;;1.85;;
58091;SDS011;43896;48.178;11.578;2022-07-29T04:17:02;3.22;;;1.90;;
58091;SDS011;43896;48.178;11.578;2022-07-29T04:19:28;3.67;;;2.13;;
58091;SDS011;43896;48.178;11.578;2022-07-29T04:21:54;4.65;;;2.00;;
58091;SDS011;43896;48.178;11.578;2022-07-29T04:24:19;4.53;;;2.10;;
58091;SDS011;43896;48.178;11.578;2022-07-29T04:26:45;4.07;;;1.92;;
58091;SDS011;43896;48.178;11.578;2022-07-29T04:29:11;4.20;;;2.08;;
58091;SDS011;43896;48.178;11.578;2022-07-29T04:31:39;4.47;;;1.95;;
58091;SDS011;43896;48.178;11.578;2022-07-29T04:34:04;3.88;;;1.80;;
58091;SDS011;43896;48.178;11.578;2022-07-29T04:36:33;3.20;;;1.80;;
58091;SDS011;43896;48.178;11.578;2022-07-29T04:38:58;4.80;;;2.10;;
58091;SDS011;43896;48.178;11.578;2022-07-29T04:41:32;3.80;;;2.03;;
58091;SDS011;43896;48.178;11.578;2022-07-29T05:01:27;5.13;;;2.03;;
58091;SDS011;43896;48.178;11.578;2022-07-29T05:03:52;6.45;;;2.03;;
58091;SDS011;43896;48.178;11.578;2022-07-29T05:06:27;5.80;;;1.95;;
58091;SDS011;43896;48.178;11.578;2022-07-29T05:08:52;5.10;;;2.20;;
58091;SDS011;43896;48.178;11.578;2022-07-29T05:11:17;4.60;;;2.00;;
58091;SDS011;43896;48.178;11.578;2022-07-29T05:13:43;4.65;;;2.10;;
58091;SDS011;43896;48.178;11.578;2022-07-29T05:16:08;4.65;;;2.17;;
58091;SDS011;43896;48.178;11.578;2022-07-29T05:18:52;4.45;;;1.70;;
58091;SDS011;43896;48.178;11.578;2022-07-29T05:21:20;4.13;;;1.80;;
58091;SDS011;43896;48.178;11.578;2022-07-29T05:23:45;5.43;;;1.90;;
58091;SDS011;43896;48.178;11.578;2022-07-29T05:26:10;3.90;;;1.77;;
58091;SDS011;43896;48.178;11.578;2022-07-29T05:28:36;4.22;;;2.00;;
58091;SDS011;43896;48.178;11.578;2022-07-29T05:31:02;3.58;;;1.80;;
58091;SDS011;43896;48.178;11.578;2022-07-29T05:33:28;4.93;;;2.00;;
58091;SDS011;43896;48.178;11.578;2022-07-29T05:35:53;4.20;;;2.00;;
58091;SDS011;43896;48.178;11.578;2022-07-29T05:38:19;3.97;;;1.70;;
58091;SDS011;43896;48.178;11.578;2022-07-29T05:40:44;3.53;;;2.00;;
58091;SDS011;43896;48.178;11.578;2022-07-29T05:43:20;4.50;;;2.25;;
58091;SDS011;43896;48.178;11.578;2022-07-29T05:45:51;6.47;;;2.30;;
58091;SDS011;43896;48.178;11.578;2022-07-29T05:48:17;7.03;;;2.42;;
58091;SDS011;43896;48.178;11.578;2022-07-29T05:50:42;4.72;;;2.00;;
58091;SDS011;43896;48.178;11.578;2022-07-29T05:53:11;7.07;;;2.40;;
58091;SDS011;43896;48.178;11.578;2022-07-29T05:55:42;5.07;;;1.98;;
58091;SDS011;43896;48.178;11.578;2022-07-29T05:58:14;3.63;;;2.03;;
58091;SDS011;43896;48.178;11.578;2022-07-29T06:00:39;6.95;;;2.30;;
58091;SDS011;43896;48.178;11.578;2022-07-29T06:03:07;7.10;;;2.30;;
58091;SDS011;43896;48.178;11.578;2022-07-29T06:05:33;5.88;;;2.28;;
58091;SDS011;43896;48.178;11.578;2022-07-29T06:07:58;7.05;;;2.42;;
58091;SDS011;43896;48.178;11.578;2022-07-29T06:10:24;4.82;;;2.38;;
58091;SDS011;43896;48.178;11.578;2022-07-29T06:12:49;5.60;;;2.50;;
58091;SDS011;43896;48.178;11.578;2022-07-29T06:15:15;4.45;;;2.10;;
58091;SDS011;43896;48.178;11.578;2022-07-29T06:17:40;3.63;;;1.80;;
58091;SDS011;43896;48.178;11.578;2022-07-29T06:20:06;4.97;;;2.15;;
58091;SDS011;43896;48.178;11.578;2022-07-29T06:22:31;4.93;;;1.98;;
58091;SDS011;43896;48.178;11.578;2022-07-29T06:24:57;4.45;;;1.98;;
58091;SDS011;43896;48.178;11.578;2022-07-29T06:27:22;4.25;;;1.80;;
58091;SDS011;43896;48.178;11.578;2022-07-29T06:29:50;4.45;;;1.80;;
58091;SDS011;43896;48.178;11.578;2022-07-29T06:32:16;3.97;;;2.03;;
58091;SDS011;43896;48.178;11.578;2022-07-29T06:34:41;5.18;;;2.13;;
58091;SDS011;43896;48.178;11.578;2022-07-29T06:37:07;3.85;;;2.00;;
58091;SDS011;43896;48.178;11.578;2022-07-29T06:39:35;5.28;;;2.35;;
58091;SDS011;43896;48.178;11.578;2022-07-29T06:42:01;3.97;;;2.10;;
58091;SDS011;43896;48.178;11.578;2022-07-29T06:44:27;5.75;;;2.17;;
58091;SDS011;43896;48.178;11.578;2022-07-29T06:46:53;4.07;;;2.10;;
58091;SDS011;43896;48.178;11.578;2022-07-29T06:49:19;4.53;;;2.00;;
58091;SDS011;43896;48.178;11.578;2022-07-29T06:51:45;6.28;;;2.30;;
58091;SDS011;43896;48.178;11.578;2022-07-29T06:54:10;4.50;;;2.20;;
58091;SDS011;43896;48.178;11.578;2022-07-29T06:56:36;5.57;;;2.28;;
58091;SDS011;43896;48.178;11.578;2022-07-29T06:59:02;4.88;;;2.05;;
58091;SDS011;43896;48.178;11.578;2022-07-29T07:01:28;4.10;;;1.90;;
58091;SDS011;43896;48.178;11.578;2022-07-29T07:03:53;4.07;;;1.98;;
58091;SDS011;43896;48.178;11.578;2022-07-29T07:12:19;4.85;;;1.40;;
58091;SDS011;43896;48.178;11.578;2022-07-29T07:14:45;4.45;;;1.75;;
58091;SDS011;43896;48.178;11.578;2022-07-29T07:17:18;4.15;;;1.75;;
58091;SDS011;43896;48.178;11.578;2022-07-29T07:20:13;4.07;;;1.80;;
58091;SDS011;43896;48.178;11.578;2022-07-29T07:23:37;4.20;;;1.40;;
58091;SDS011;43896;48.178;11.578;2022-07-29T07:29:35;2.70;;;1.40;;
58091;SDS011;43896;48.178;11.578;2022-07-29T07:35:18;3.20;;;1.33;;
58091;SDS011;43896;48.178;11.578;2022-07-29T07:38:05;3.17;;;1.50;;
58091;SDS011;43896;48.178;11.578;2022-07-29T07:41:06;2.75;;;1.25;;
58091;SDS011;43896;48.178;11.578;2022-07-29T07:47:42;4.22;;;1.40;;
58091;SDS011;43896;48.178;11.578;2022-07-29T07:50:11;3.60;;;1.23;;
58091;SDS011;43896;48.178;11.578;2022-07-29T07:52:51;3.28;;;1.20;;
58091;SDS011;43896;48.178;11.578;2022-07-29T07:55:19;3.58;;;1.40;;
58091;SDS011;43896;48.178;11.578;2022-07-29T07:57:45;2.92;;;1.40;;
58091;SDS011;43896;48.178;11.578;2022-07-29T08:00:12;2.47;;;1.23;;
58091;SDS011;43896;48.178;11.578;2022-07-29T08:02:39;2.80;;;1.30;;
58091;SDS011;43896;48.178;11.578;2022-07-29T08:05:08;3.35;;;1.38;;
58091;SDS011;43896;48.178;11.578;2022-07-29T08:07:46;2.70;;;1.40;;
58091;SDS011;43896;48.178;11.578;2022-07-29T08:10:55;2.47;;;1.50;;
58091;SDS011;43896;48.178;11.578;2022-07-29T08:20:38;3.08;;;1.30;;
58091;SDS011;43896;48.178;11.578;2022-07-29T08:23:42;3.60;;;1.40;;
58091;SDS011;43896;48.178;11.578;2022-07-29T08:26:51;4.10;;;1.70;;
58091;SDS011;43896;48.178;11.578;2022-07-29T08:33:43;3.35;;;1.40;;
58091;SDS011;43896;48.178;11.578;2022-07-29T08:47:48;3.20;;;1.60;;
58091;SDS011;43896;48.178;11.578;2022-07-29T08:50:16;2.97;;;1.57;;
58091;SDS011;43896;48.178;11.578;2022-07-29T08:52:42;2.90;;;1.77;;
58091;SDS011;43896;48.178;11.578;2022-07-29T08:55:08;3.08;;;1.80;;
58091;SDS011;43896;48.178;11.578;2022-07-29T08:57:35;3.10;;;1.70;;
58091;SDS011;43896;48.178;11.578;2022-07-29T09:00:03;3.65;;;1.95;;
58091;SDS011;43896;48.178;11.578;2022-07-29T09:02:32;3.15;;;1.90;;
58091;SDS011;43896;48.178;11.578;2022-07-29T09:05:02;3.90;;;1.80;;
58091;SDS011;43896;48.178;11.578;2022-07-29T09:07:29;4.18;;;2.10;;
58091;SDS011;43896;48.178;11.578;2022-07-29T09:09:54;4.15;;;1.98;;
58091;SDS011;43896;48.178;11.578;2022-07-29T09:12:21;4.13;;;1.95;;
58091;SDS011;43896;48.178;11.578;2022-07-29T09:14:49;3.03;;;1.83;;
58091;SDS011;43896;48.178;11.578;2022-07-29T09:17:15;5.30;;;2.17;;
58091;SDS011;43896;48.178;11.578;2022-07-29T09:19:42;4.50;;;2.10;;
58091;SDS011;43896;48.178;11.578;2022-07-29T09:22:07;3.50;;;1.80;;
58091;SDS011;43896;48.178;11.578;2022-07-29T09:26:59;3.42;;;1.90;;
58091;SDS011;43896;48.178;11.578;2022-07-29T09:29:26;5.55;;;2.08;;
58091;SDS011;43896;48.178;11.578;2022-07-29T09:31:52;3.53;;;1.77;;
58091;SDS011;43896;48.178;11.578;2022-07-29T09:34:27;4.00;;;2.00;;
58091;SDS011;43896;48.178;11.578;2022-07-29T09:36:55;3.00;;;1.85;;
58091;SDS011;43896;48.178;11.578;2022-07-29T09:39:28;4.25;;;2.22;;
58091;SDS011;43896;48.178;11.578;2022-07-29T09:42:03;3.05;;;1.88;;
58091;SDS011;43896;48.178;11.578;2022-07-29T09:44:44;3.50;;;2.10;;
58091;SDS011;43896;48.178;11.578;2022-07-29T09:47:13;3.25;;;2.10;;
58091;SDS011;43896;48.178;11.578;2022-07-29T09:49:52;3.60;;;2.00;;
58091;SDS011;43896;48.178;11.578;2022-07-29T09:52:19;3.65;;;2.05;;
58091;SDS011;43896;48.178;11.578;2022-07-29T09:54:45;4.80;;;2.30;;
58091;SDS011;43896;48.178;11.578;2022-07-29T09:57:21;4.50;;;2.10;;
58091;SDS011;43896;48.178;11.578;2022-07-29T09:59:57;4.63;;;2.25;;
58091;SDS011;43896;48.178;11.578;2022-07-29T10:02:30;4.13;;;2.60;;
58091;SDS011;43896;48.178;11.578;2022-07-29T10:04:58;4.72;;;2.40;;
58091;SDS011;43896;48.178;11.578;2022-07-29T10:07:25;4.38;;;2.65;;
58091;SDS011;43896;48.178;11.578;2022-07-29T10:09:55;4.68;;;2.45;;
58091;SDS011;43896;48.178;11.578;2022-07-29T10:12:23;6.70;;;3.30;;
58091;SDS011;43896;48.178;11.578;2022-07-29T10:14:52;4.78;;;2.30;;
58091;SDS011;43896;48.178;11.578;2022-07-29T10:17:19;4.30;;;2.40;;
58091;SDS011;43896;48.178;11.578;2022-07-29T10:19:45;4.88;;;2.33;;
58091;SDS011;43896;48.178;11.578;2022-07-29T10:22:12;4.63;;;2.40;;
58091;SDS011;43896;48.178;11.578;2022-07-29T10:24:37;5.18;;;2.60;;
58091;SDS011;43896;48.178;11.578;2022-07-29T10:27:05;4.30;;;2.28;;
58091;SDS011;43896;48.178;11.578;2022-07-29T10:29:31;6.72;;;2.42;;
58091;SDS011;43896;48.178;11.578;2022-07-29T10:35:03;4.78;;;2.60;;
58091;SDS011;43896;48.178;11.578;2022-07-29T10:40:22;4.45;;;2.40;;
58091;SDS011;43896;48.178;11.578;2022-07-29T10:43:16;5.07;;;2.70;;
58091;SDS011;43896;48.178;11.578;2022-07-29T10:45:46;5.68;;;2.60;;
58091;SDS011;43896;48.178;11.578;2022-07-29T10:48:14;7.15;;;2.67;;
58091;SDS011;43896;48.178;11.578;2022-07-29T10:50:59;4.45;;;2.78;;
58091;SDS011;43896;48.178;11.578;2022-07-29T10:54:02;4.13;;;2.47;;
58091;SDS011;43896;48.178;11.578;2022-07-29T10:56:28;4.22;;;2.53;;
58091;SDS011;43896;48.178;11.578;2022-07-29T11:01:45;4.28;;;2.55;;
58091;SDS011;43896;48.178;11.578;2022-07-29T11:04:11;4.20;;;2.47;;
58091;SDS011;43896;48.178;11.578;2022-07-29T11:09:27;4.18;;;2.55;;
58091;SDS011;43896;48.178;11.578;2022-07-29T11:11:55;3.97;;;2.30;;
58091;SDS011;43896;48.178;11.578;2022-07-29T11:17:22;5.63;;;2.50;;
58091;SDS011;43896;48.178;11.578;2022-07-29T11:19:47;3.67;;;2.28;;
58091;SDS011;43896;48.178;11.578;2022-07-29T11:22:31;3.97;;;2.10;;
58091;SDS011;43896;48.178;11.578;2022-07-29T11:25:13;4.18;;;2.10;;
58091;SDS011;43896;48.178;11.578;2022-07-29T11:27:39;5.82;;;2.50;;
58091;SDS011;43896;48.178;11.578;2022-07-29T11:30:05;4.32;;;2.05;;
58091;SDS011;43896;48.178;11.578;2022-07-29T11:32:38;4.95;;;2.15;;
58091;SDS011;43896;48.178;11.578;2022-07-29T11:35:19;4.38;;;2.30;;
58091;SDS011;43896;48.178;11.578;2022-07-29T11:37:47;4.47;;;2.10;;
58091;SDS011;43896;48.178;11.578;2022-07-29T11:41:29;3.40;;;2.00;;
58091;SDS011;43896;48.178;11.578;2022-07-29T11:43:50;3.78;;;2.25;;
58091;SDS011;43896;48.178;11.578;2022-07-29T11:49:13;3.88;;;2.15;;
58091;SDS011;43896;48.178;11.578;2022-07-29T11:51:49;4.18;;;2.22;;
58091;SDS011;43896;48.178;11.578;2022-07-29T11:54:16;4.22;;;2.35;;
58091;SDS011;43896;48.178;11.578;2022-07-29T11:56:54;4.32;;;2.15;;
58091;SDS011;43896;48.178;11.578;2022-07-29T11:59:19;6.20;;;2.40;;
58091;SDS011;43896;48.178;11.578;2022-07-29T12:01:56;5.13;;;1.98;;
58091;SDS011;43896;48.178;11.578;2022-07-29T12:04:23;3.42;;;2.00;;
58091;SDS011;43896;48.178;11.578;2022-07-29T12:06:50;4.82;;;2.00;;
58091;SDS011;43896;48.178;11.578;2022-07-29T12:09:16;3.78;;;2.10;;
58091;SDS011;43896;48.178;11.578;2022-07-29T12:11:42;4.47;;;2.50;;
58091;SDS011;43896;48.178;11.578;2022-07-29T12:14:08;5.45;;;2.60;;
58091;SDS011;43896;48.178;11.578;2022-07-29T12:16:34;4.38;;;2.35;;
58091;SDS011;43896;48.178;11.578;2022-07-29T12:19:02;3.20;;;2.03;;
58091;SDS011;43896;48.178;11.578;2022-07-29T12:21:29;5.28;;;2.30;;
58091;SDS011;43896;48.178;11.578;2022-07-29T12:24:07;4.78;;;2.42;;
58091;SDS011;43896;48.178;11.578;2022-07-29T12:26:33;3.72;;;2.20;;
58091;SDS011;43896;48.178;11.578;2022-07-29T12:28:58;4.30;;;2.33;;
58091;SDS011;43896;48.178;11.578;2022-07-29T12:31:24;5.00;;;2.25;;
58091;SDS011;43896;48.178;11.578;2022-07-29T12:33:52;4.22;;;2.25;;
58091;SDS011;43896;48.178;11.578;2022-07-29T12:36:18;4.47;;;2.65;;
58091;SDS011;43896;48.178;11.578;2022-07-29T12:38:44;4.00;;;2.60;;
58091;SDS011;43896;48.178;11.578;2022-07-29T12:41:10;5.35;;;2.15;;
58091;SDS011;43896;48.178;11.578;2022-07-29T12:43:36;3.92;;;2.45;;
58091;SDS011;43896;48.178;11.578;2022-07-29T12:46:14;5.18;;;2.30;;
58091;SDS011;43896;48.178;11.578;2022-07-29T12:48:40;5.30;;;2.50;;
58091;SDS011;43896;48.178;11.578;2022-07-29T12:51:08;5.50;;;2.20;;
58091;SDS011;43896;48.178;11.578;2022-07-29T12:53:35;4.40;;;2.20;;
58091;SDS011;43896;48.178;11.578;2022-07-29T12:56:01;4.45;;;2.20;;
58091;SDS011;43896;48.178;11.578;2022-07-29T12:58:29;3.75;;;2.40;;
58091;SDS011;43896;48.178;11.578;2022-07-29T13:01:09;4.65;;;2.25;;
58091;SDS011;43896;48.178;11.578;2022-07-29T13:03:56;3.90;;;2.25;;
58091;SDS011;43896;48.178;11.578;2022-07-29T13:09:03;4.85;;;2.58;;
58091;SDS011;43896;48.178;11.578;2022-07-29T13:11:38;5.18;;;2.58;;
58091;SDS011;43896;48.178;11.578;2022-07-29T13:17:21;5.55;;;2.47;;
58091;SDS011;43896;48.178;11.578;2022-07-29T13:19:51;6.07;;;2.50;;
58091;SDS011;43896;48.178;11.578;2022-07-29T13:22:23;4.53;;;2.20;;
58091;SDS011;43896;48.178;11.578;2022-07-29T13:24:53;4.95;;;2.50;;
58091;SDS011;43896;48.178;11.578;2022-07-29T13:27:37;6.80;;;2.10;;
58091;SDS011;43896;48.178;11.578;2022-07-29T13:30:05;6.03;;;2.65;;
58091;SDS011;43896;48.178;11.578;2022-07-29T13:32:32;6.57;;;2.33;;
58091;SDS011;43896;48.178;11.578;2022-07-29T13:35:05;5.47;;;2.25;;
58091;SDS011;43896;48.178;11.578;2022-07-29T13:37:33;4.43;;;2.25;;
58091;SDS011;43896;48.178;11.578;2022-07-29T13:40:03;4.50;;;2.20;;
58091;SDS011;43896;48.178;11.578;2022-07-29T13:42:29;7.82;;;2.58;;
58091;SDS011;43896;48.178;11.578;2022-07-29T13:44:54;6.10;;;2.40;;
58091;SDS011;43896;48.178;11.578;2022-07-29T13:47:20;4.30;;;2.58;;
58091;SDS011;43896;48.178;11.578;2022-07-29T13:49:46;5.50;;;2.40;;
58091;SDS011;43896;48.178;11.578;2022-07-29T13:52:12;5.00;;;2.30;;
58091;SDS011;43896;48.178;11.578;2022-07-29T13:54:38;4.68;;;2.55;;
58091;SDS011;43896;48.178;11.578;2022-07-29T13:57:04;4.45;;;2.60;;
58091;SDS011;43896;48.178;11.578;2022-07-29T13:59:29;6.10;;;3.10;;
58091;SDS011;43896;48.178;11.578;2022-07-29T14:01:56;5.10;;;2.63;;
58091;SDS011;43896;48.178;11.578;2022-07-29T14:04:21;4.00;;;2.22;;
58091;SDS011;43896;48.178;11.578;2022-07-29T14:06:48;3.90;;;2.10;;
58091;SDS011;43896;48.178;11.578;2022-07-29T14:09:14;4.70;;;2.33;;
58091;SDS011;43896;48.178;11.578;2022-07-29T14:11:39;5.97;;;2.45;;
58091;SDS011;43896;48.178;11.578;2022-07-29T14:14:05;3.80;;;2.13;;
58091;SDS011;43896;48.178;11.578;2022-07-29T14:16:30;3.45;;;1.90;;
58091;SDS011;43896;48.178;11.578;2022-07-29T14:18:59;4.15;;;2.00;;
58091;SDS011;43896;48.178;11.578;2022-07-29T14:21:24;3.30;;;1.92;;
58091;SDS011;43896;48.178;11.578;2022-07-29T14:23:50;3.03;;;1.80;;
58091;SDS011;43896;48.178;11.578;2022-07-29T14:26:19;3.17;;;1.55;;
58091;SDS011;43896;48.178;11.578;2022-07-29T14:28:47;3.97;;;1.70;;
58091;SDS011;43896;48.178;11.578;2022-07-29T14:31:28;4.13;;;1.80;;
58091;SDS011;43896;48.178;11.578;2022-07-29T14:33:53;3.67;;;1.77;;
58091;SDS011;43896;48.178;11.578;2022-07-29T14:36:21;6.35;;;1.90;;
58091;SDS011;43896;48.178;11.578;2022-07-29T14:38:59;4.28;;;2.10;;
58091;SDS011;43896;48.178;11.578;2022-07-29T14:41:31;5.93;;;1.88;;
58091;SDS011;43896;48.178;11.578;2022-07-29T14:43:58;3.35;;;1.90;;
58091;SDS011;43896;48.178;11.578;2022-07-29T14:46:27;2.97;;;1.88;;
58091;SDS011;43896;48.178;11.578;2022-07-29T14:48:55;5.13;;;1.95;;
58091;SDS011;43896;48.178;11.578;2022-07-29T14:54:24;5.53;;;2.10;;
58091;SDS011;43896;48.178;11.578;2022-07-29T14:56:50;3.95;;;2.10;;
58091;SDS011;43896;48.178;11.578;2022-07-29T14:59:16;6.80;;;2.20;;
58091;SDS011;43896;48.178;11.578;2022-07-29T15:01:43;5.25;;;1.95;;
58091;SDS011;43896;48.178;11.578;2022-07-29T15:04:08;4.55;;;2.13;;
58091;SDS011;43896;48.178;11.578;2022-07-29T15:06:33;6.85;;;2.20;;
58091;SDS011;43896;48.178;11.578;2022-07-29T15:08:59;5.85;;;2.25;;
58091;SDS011;43896;48.178;11.578;2022-07-29T15:11:25;6.90;;;2.00;;
58091;SDS011;43896;48.178;11.578;2022-07-29T15:13:51;4.10;;;2.20;;
58091;SDS011;43896;48.178;11.578;2022-07-29T15:16:16;4.63;;;2.45;;
58091;SDS011;43896;48.178;11.578;2022-07-29T15:18:42;4.40;;;2.30;;
58091;SDS011;43896;48.178;11.578;2022-07-29T15:21:09;6.68;;;2.30;;
58091;SDS011;43896;48.178;11.578;2022-07-29T15:23:35;4.85;;;2.40;;
58091;SDS011;43896;48.178;11.578;2022-07-29T15:26:01;5.13;;;2.30;;
58091;SDS011;43896;48.178;11.578;2022-07-29T15:28:27;5.25;;;2.78;;
58091;SDS011;43896;48.178;11.578;2022-07-29T15:30:55;4.45;;;2.63;;
58091;SDS011;43896;48.178;11.578;2022-07-29T15:33:35;5.82;;;2.55;;
58091;SDS011;43896;48.178;11.578;2022-07-29T15:39:33;5.90;;;2.90;;
58091;SDS011;43896;48.178;11.578;2022-07-29T15:42:39;6.75;;;3.15;;
58091;SDS011;43896;48.178;11.578;2022-07-29T16:02:35;5.57;;;3.00;;
58091;SDS011;43896;48.178;11.578;2022-07-29T16:05:17;4.07;;;2.85;;
58091;SDS011;43896;48.178;11.578;2022-07-29T16:07:45;5.18;;;2.90;;
58091;SDS011;43896;48.178;11.578;2022-07-29T16:10:31;6.07;;;2.70;;
58091;SDS011;43896;48.178;11.578;2022-07-29T16:13:07;5.88;;;2.97;;
58091;SDS011;43896;48.178;11.578;2022-07-29T16:19:25;4.18;;;2.78;;
58091;SDS011;43896;48.178;11.578;2022-07-29T16:25:37;4.40;;;2.55;;
58091;SDS011;43896;48.178;11.578;2022-07-29T16:28:05;4.50;;;2.65;;
58091;SDS011;43896;48.178;11.578;2022-07-29T16:30:32;4.40;;;2.53;;
58091;SDS011;43896;48.178;11.578;2022-07-29T16:32:58;4.82;;;2.83;;
58091;SDS011;43896;48.178;11.578;2022-07-29T16:35:24;4.25;;;2.78;;
58091;SDS011;43896;48.178;11.578;2022-07-29T16:37:49;5.65;;;2.75;;
58091;SDS011;43896;48.178;11.578;2022-07-29T16:40:19;5.38;;;2.70;;
58091;SDS011;43896;48.178;11.578;2022-07-29T16:42:44;4.13;;;2.45;;
58091;SDS011;43896;48.178;11.578;2022-07-29T16:45:10;3.85;;;2.35;;
58091;SDS011;43896;48.178;11.578;2022-07-29T16:47:41;4.63;;;2.58;;
58091;SDS011;43896;48.178;11.578;2022-07-29T16:50:07;5.40;;;2.90;;
58091;SDS011;43896;48.178;11.578;2022-07-29T16:52:32;6.18;;;2.63;;
58091;SDS011;43896;48.178;11.578;2022-07-29T16:54:58;4.80;;;2.67;;
58091;SDS011;43896;48.178;11.578;2022-07-29T16:57:23;4.55;;;2.65;;
58091;SDS011;43896;48.178;11.578;2022-07-29T16:59:49;4.95;;;2.75;;
58091;SDS011;43896;48.178;11.578;2022-07-29T17:02:15;4.65;;;2.67;;
58091;SDS011;43896;48.178;11.578;2022-07-29T17:04:40;4.97;;;2.78;;
58091;SDS011;43896;48.178;11.578;2022-07-29T17:07:06;4.15;;;2.60;;
58091;SDS011;43896;48.178;11.578;2022-07-29T17:09:31;3.95;;;2.50;;
58091;SDS011;43896;48.178;11.578;2022-07-29T17:11:57;4.72;;;2.67;;